createdAt,value
2023-05-18T00:01:56.737Z,93.70
2023-05-18T00:04:24.211Z,93.90
2023-05-18T00:06:57.041Z,94.00
2023-05-18T00:09:25.852Z,93.80
2023-05-18T00:11:53.664Z,93.80
2023-05-18T00:14:21.621Z,93.70
2023-05-18T00:16:49.525Z,93.80
2023-05-18T00:19:16.439Z,93.40
2023-05-18T00:21:46.237Z,93.30
2023-05-18T00:24:13.930Z,93.30
2023-05-18T00:26:42.359Z,93.40
2023-05-18T00:29:11.809Z,93.50
2023-05-18T00:31:39.379Z,93.50
2023-05-18T00:34:07.681Z,93.50
2023-05-18T00:36:36.319Z,93.40
2023-05-18T00:39:04.599Z,93.60
2023-05-18T00:41:33.774Z,93.60
2023-05-18T00:44:02.019Z,93.60
2023-05-18T00:46:29.336Z,93.70
2023-05-18T00:48:57.521Z,93.80
2023-05-18T00:51:25.024Z,93.80
2023-05-18T00:53:53.900Z,93.70
2023-05-18T00:56:25.278Z,93.60
2023-05-18T00:58:57.308Z,93.60
2023-05-18T01:01:31.407Z,93.70
2023-05-18T01:04:02.421Z,93.80
2023-05-18T01:06:36.434Z,93.80
2023-05-18T01:09:07.054Z,93.80
2023-05-18T01:12:00.054Z,93.90
2023-05-18T01:14:32.798Z,93.90
2023-05-18T01:17:55.228Z,93.90
2023-05-18T01:20:59.673Z,94.10
2023-05-18T01:23:29.834Z,94.10
2023-05-18T01:25:56.787Z,94.20
2023-05-18T01:28:32.347Z,94.10
2023-05-18T01:31:02.070Z,94.20
2023-05-18T01:33:29.281Z,94.30
2023-05-18T01:35:56.453Z,94.50
2023-05-18T01:38:26.055Z,94.50
2023-05-18T01:41:22.841Z,94.60
2023-05-18T01:43:56.417Z,94.50
2023-05-18T01:46:54.771Z,94.50
2023-05-18T01:49:37.916Z,94.50
2023-05-18T01:52:09.071Z,94.50
2023-05-18T01:54:43.572Z,94.40
2023-05-18T01:57:11.462Z,94.40
2023-05-18T01:59:38.701Z,94.30
2023-05-18T02:02:06.076Z,94.30
2023-05-18T02:04:33.035Z,94.30
2023-05-18T02:06:59.981Z,94.50
2023-05-18T02:09:27.279Z,94.50
2023-05-18T02:11:54.344Z,94.60
2023-05-18T02:14:21.430Z,94.70
2023-05-18T02:16:52.969Z,95.00
2023-05-18T02:19:21.147Z,94.80
2023-05-18T02:21:48.486Z,95.00
2023-05-18T02:24:15.602Z,95.10
2023-05-18T02:26:42.501Z,95.00
2023-05-18T02:29:12.274Z,95.20
2023-05-18T02:31:39.301Z,95.30
2023-05-18T02:34:10.449Z,95.70
2023-05-18T02:36:42.157Z,95.40
2023-05-18T02:39:10.561Z,95.50
2023-05-18T02:41:37.756Z,95.60
2023-05-18T02:44:06.376Z,95.60
2023-05-18T02:46:33.387Z,95.60
2023-05-18T02:49:03.445Z,95.60
2023-05-18T02:51:31.545Z,95.60
2023-05-18T02:53:58.485Z,95.70
2023-05-18T02:56:25.391Z,95.70
2023-05-18T02:58:57.892Z,95.70
2023-05-18T03:01:27.266Z,95.80
2023-05-18T03:03:57.980Z,95.80
2023-05-18T03:06:27.186Z,95.90
2023-05-18T03:08:56.902Z,95.80
2023-05-18T03:11:24.471Z,95.70
2023-05-18T03:13:51.403Z,95.90
2023-05-18T03:16:18.888Z,96.10
2023-05-18T03:18:46.231Z,95.90
2023-05-18T03:21:16.713Z,96.00
2023-05-18T03:23:43.761Z,96.10
2023-05-18T03:26:13.244Z,96.10
2023-05-18T03:28:40.114Z,96.20
2023-05-18T03:31:07.133Z,96.20
2023-05-18T03:33:34.504Z,96.20
2023-05-18T03:36:04.569Z,96.20
2023-05-18T03:38:31.754Z,96.10
2023-05-18T03:40:58.802Z,96.20
2023-05-18T03:43:26.128Z,96.10
2023-05-18T03:45:56.081Z,96.20
2023-05-18T03:48:24.620Z,96.30
2023-05-18T03:50:51.652Z,96.20
2023-05-18T03:53:19.428Z,96.30
2023-05-18T03:55:47.208Z,96.30
2023-05-18T03:58:14.155Z,96.40
2023-05-18T04:00:42.762Z,96.40
2023-05-18T04:03:14.746Z,96.40
2023-05-18T04:05:45.221Z,96.40
2023-05-18T04:08:16.701Z,96.60
2023-05-18T04:10:44.440Z,96.50
2023-05-18T04:13:15.003Z,96.40
2023-05-18T04:15:50.916Z,96.50
2023-05-18T04:18:33.524Z,96.40
2023-05-18T04:21:04.511Z,96.40
2023-05-18T04:23:36.056Z,96.50
2023-05-18T04:26:06.046Z,96.40
2023-05-18T04:28:33.177Z,96.30
2023-05-18T04:31:08.898Z,96.50
2023-05-18T04:33:38.605Z,96.40
2023-05-18T04:36:05.994Z,96.40
2023-05-18T04:38:36.469Z,96.20
2023-05-18T04:41:08.064Z,96.10
2023-05-18T04:43:36.743Z,96.10
2023-05-18T04:46:07.033Z,96.00
2023-05-18T04:48:34.358Z,95.90
2023-05-18T04:51:01.681Z,95.50
2023-05-18T04:53:28.732Z,95.40
2023-05-18T04:55:59.730Z,95.30
2023-05-18T04:58:30.762Z,95.20
2023-05-18T05:00:59.289Z,95.00
2023-05-18T05:03:26.692Z,94.80
2023-05-18T05:05:53.952Z,94.70
2023-05-18T05:08:24.414Z,94.80
2023-05-18T05:11:03.415Z,94.90
2023-05-18T05:13:35.060Z,95.00
2023-05-18T05:19:01.317Z,95.00
2023-05-18T05:21:29.534Z,95.00
2023-05-18T05:23:57.250Z,94.80
2023-05-18T05:26:28.269Z,94.90
2023-05-18T05:28:59.423Z,94.80
2023-05-18T05:31:51.387Z,94.70
2023-05-18T05:34:18.535Z,94.50
2023-05-18T06:15:18.431Z,74.50
2023-05-18T06:17:48.828Z,75.00
2023-05-18T06:23:47.557Z,73.80
2023-05-18T06:26:15.479Z,72.60
2023-05-18T06:28:43.000Z,70.10
2023-05-18T06:31:11.854Z,67.80
2023-05-18T06:33:39.253Z,67.50
2023-05-18T06:36:07.118Z,67.50
2023-05-18T06:38:34.235Z,66.30
2023-05-18T06:41:01.382Z,65.80
2023-05-18T06:43:31.206Z,67.00
2023-05-18T06:58:14.932Z,62.40
2023-05-18T07:05:14.365Z,61.70
2023-05-18T07:15:11.630Z,61.50
2023-05-18T07:17:43.114Z,58.30
2023-05-18T07:20:10.287Z,60.70
2023-05-18T07:22:38.507Z,59.60
2023-05-18T07:25:05.762Z,58.10
2023-05-18T07:27:36.724Z,57.80
2023-05-18T07:30:03.877Z,57.70
2023-05-18T07:32:32.509Z,56.90
2023-05-18T07:34:59.592Z,57.10
2023-05-18T07:37:26.685Z,58.10
2023-05-18T07:39:53.523Z,59.10
2023-05-18T07:42:20.422Z,57.80
2023-05-18T07:44:47.333Z,57.00
2023-05-18T07:47:14.225Z,55.00
2023-05-18T07:49:41.026Z,55.50
2023-05-18T07:52:08.373Z,54.30
2023-05-18T07:54:35.402Z,53.10
2023-05-18T07:57:02.336Z,51.00
2023-05-18T07:59:29.191Z,52.10
2023-05-18T08:01:57.768Z,51.50
2023-05-18T08:04:25.029Z,51.00
2023-05-18T08:06:54.750Z,49.60
2023-05-18T08:09:24.629Z,52.00
2023-05-18T08:11:52.176Z,53.30
2023-05-18T08:14:19.498Z,52.00
2023-05-18T08:16:46.520Z,54.80
2023-05-18T08:19:13.436Z,53.60
2023-05-18T08:21:40.393Z,52.80
2023-05-18T08:24:07.654Z,51.80
2023-05-18T08:26:34.376Z,52.40
2023-05-18T08:29:01.204Z,51.40
2023-05-18T08:31:28.122Z,52.20
2023-05-18T08:33:54.951Z,51.60
2023-05-18T08:36:21.846Z,50.30
2023-05-18T08:38:48.635Z,48.90
2023-05-18T08:41:15.380Z,50.80
2023-05-18T08:43:45.937Z,51.70
2023-05-18T08:46:33.874Z,52.10
2023-05-18T08:49:02.915Z,51.60
2023-05-18T08:51:34.330Z,51.50
2023-05-18T08:54:02.635Z,49.80
2023-05-18T08:56:32.371Z,48.20
2023-05-18T08:58:59.824Z,49.20
2023-05-18T09:01:31.278Z,49.60
2023-05-18T09:03:59.645Z,49.00
2023-05-18T09:06:28.488Z,49.60
2023-05-18T09:08:58.405Z,50.30
2023-05-18T09:11:27.434Z,52.10
2023-05-18T09:13:55.149Z,55.20
2023-05-18T09:16:22.155Z,57.20
2023-05-18T09:18:49.593Z,58.30
2023-05-18T09:21:16.496Z,56.50
2023-05-18T09:23:44.274Z,56.50
2023-05-18T09:26:12.472Z,54.40
2023-05-18T09:28:43.353Z,52.80
2023-05-18T09:31:16.828Z,53.60
2023-05-18T09:33:45.577Z,56.10
2023-05-18T09:36:15.192Z,56.80
2023-05-18T09:38:45.820Z,54.00
2023-05-18T09:41:13.929Z,52.60
2023-05-18T09:43:41.309Z,54.00
2023-05-18T09:46:09.236Z,56.50
2023-05-18T09:48:37.546Z,56.30
2023-05-18T09:51:07.812Z,52.80
2023-05-18T09:53:37.699Z,53.40
2023-05-18T09:56:12.289Z,53.30
2023-05-18T09:58:41.968Z,52.50
2023-05-18T10:01:08.902Z,52.20
2023-05-18T10:03:37.937Z,51.80
2023-05-18T10:06:06.277Z,50.30
2023-05-18T10:08:34.093Z,50.20
2023-05-18T10:11:01.694Z,50.50
2023-05-18T10:13:31.827Z,51.10
2023-05-18T10:16:04.535Z,51.20
2023-05-18T10:18:34.212Z,50.40
2023-05-18T10:21:02.771Z,51.60
2023-05-18T10:23:37.529Z,51.50
2023-05-18T10:26:07.340Z,50.50
2023-05-18T10:28:45.197Z,51.00
2023-05-18T10:31:15.434Z,48.90
2023-05-18T10:33:43.995Z,50.80
2023-05-18T10:36:11.535Z,50.80
2023-05-18T10:38:39.936Z,50.40
2023-05-18T10:41:07.881Z,51.20
2023-05-18T10:43:36.583Z,52.10
2023-05-18T10:46:07.818Z,50.90
2023-05-18T10:48:38.998Z,51.50
2023-05-18T10:51:07.459Z,51.70
2023-05-18T10:53:36.748Z,52.00
2023-05-18T10:56:04.088Z,51.40
2023-05-18T10:58:32.061Z,51.40
2023-05-18T11:01:09.297Z,52.70
2023-05-18T11:03:41.041Z,51.20
2023-05-18T11:06:12.129Z,53.30
2023-05-18T11:08:49.717Z,53.30
2023-05-18T11:11:19.279Z,53.70
2023-05-18T11:13:51.689Z,53.60
2023-05-18T11:16:32.461Z,54.50
2023-05-18T11:19:06.905Z,53.90
2023-05-18T11:21:36.813Z,53.00
2023-05-18T11:24:19.048Z,52.20
2023-05-18T11:26:57.830Z,51.10
2023-05-18T11:29:42.152Z,52.60
2023-05-18T11:32:33.666Z,52.30
2023-05-18T11:35:00.962Z,53.10
2023-05-18T11:37:45.024Z,51.80
2023-05-18T11:40:33.556Z,53.20
2023-05-18T11:43:10.592Z,55.40
2023-05-18T11:45:58.708Z,57.00
2023-05-18T11:48:27.774Z,55.40
2023-05-18T11:50:57.740Z,56.00
2023-05-18T11:53:29.966Z,55.40
2023-05-18T11:56:00.087Z,56.70
2023-05-18T11:58:27.335Z,57.90
2023-05-18T12:00:55.874Z,58.00
2023-05-18T12:03:26.893Z,57.10
2023-05-18T12:05:57.757Z,57.10
2023-05-18T12:08:29.597Z,57.60
2023-05-18T12:10:57.456Z,56.30
2023-05-18T12:13:24.935Z,55.90
2023-05-18T12:16:00.648Z,56.40
2023-05-18T12:18:29.800Z,56.50
2023-05-18T12:21:03.682Z,57.90
2023-05-18T12:23:38.356Z,58.90
2023-05-18T12:26:08.231Z,58.70
2023-05-18T12:28:35.189Z,59.40
2023-05-18T12:31:07.372Z,58.00
2023-05-18T12:33:36.310Z,59.70
2023-05-18T12:36:03.531Z,60.00
2023-05-18T12:38:32.832Z,59.50
2023-05-18T12:41:00.012Z,58.50
2023-05-18T12:43:27.059Z,59.30
2023-05-18T12:45:54.186Z,59.80
2023-05-18T12:48:28.481Z,62.30
2023-05-18T12:50:55.893Z,61.40
2023-05-18T12:53:24.306Z,64.00
2023-05-18T12:56:02.697Z,65.70
2023-05-18T12:58:29.610Z,65.10
2023-05-18T13:00:56.591Z,61.90
2023-05-18T13:03:24.563Z,63.50
2023-05-18T13:06:08.149Z,65.80
2023-05-18T13:08:36.163Z,66.80
2023-05-18T13:11:12.724Z,68.20
2023-05-18T13:14:05.392Z,65.60
2023-05-18T13:16:35.366Z,69.10
2023-05-18T13:19:05.178Z,66.90
2023-05-18T13:21:32.980Z,66.60
2023-05-18T13:24:04.128Z,69.10
2023-05-18T13:26:31.620Z,69.60
2023-05-18T13:29:00.484Z,69.00
2023-05-18T13:31:29.637Z,68.10
2023-05-18T13:33:57.332Z,69.50
2023-05-18T13:36:24.612Z,68.90
2023-05-18T13:38:52.408Z,68.90
2023-05-18T13:41:19.443Z,68.90
2023-05-18T13:43:46.338Z,69.20
2023-05-18T13:46:13.516Z,69.10
2023-05-18T13:48:40.511Z,69.20
2023-05-18T13:51:07.496Z,69.80
2023-05-18T13:53:34.413Z,69.50
2023-05-18T13:56:01.433Z,69.30
2023-05-18T13:58:28.489Z,70.50
2023-05-18T14:01:03.893Z,72.30
2023-05-18T14:03:33.867Z,69.40
2023-05-18T14:06:00.949Z,69.60
2023-05-18T14:08:28.027Z,70.50
2023-05-18T14:10:54.877Z,70.40
2023-05-18T14:13:21.773Z,69.70
2023-05-18T14:15:48.702Z,69.90
2023-05-18T14:18:16.433Z,69.40
2023-05-18T14:20:43.345Z,70.90
2023-05-18T14:23:10.277Z,72.20
2023-05-18T14:25:37.500Z,72.50
2023-05-18T14:28:04.451Z,71.40
2023-05-18T14:30:47.866Z,72.30
2023-05-18T14:33:20.580Z,72.30
2023-05-18T14:35:47.816Z,70.80
2023-05-18T14:38:15.375Z,72.00
2023-05-18T14:40:42.133Z,71.70
2023-05-18T14:43:09.571Z,71.60
2023-05-18T14:45:36.964Z,70.00
2023-05-18T14:48:07.614Z,70.60
2023-05-18T14:50:38.219Z,69.00
2023-05-18T14:53:05.756Z,70.50
2023-05-18T14:55:32.715Z,69.10
2023-05-18T14:58:02.313Z,68.90
2023-05-18T15:00:29.672Z,69.80
2023-05-18T15:02:57.023Z,70.20
2023-05-18T15:05:24.280Z,70.40
2023-05-18T15:07:51.215Z,70.90
2023-05-18T15:10:18.441Z,70.70
2023-05-18T15:12:45.307Z,70.10
2023-05-18T15:15:12.210Z,70.70
2023-05-18T15:17:39.131Z,70.50
2023-05-18T15:20:07.583Z,72.10
2023-05-18T15:22:35.836Z,70.70
2023-05-18T15:25:07.542Z,70.80
2023-05-18T15:27:35.206Z,71.30
2023-05-18T15:30:03.059Z,72.30
2023-05-18T15:32:30.331Z,72.30
2023-05-18T15:34:59.657Z,72.80
2023-05-18T15:37:26.599Z,73.70
2023-05-18T15:39:53.507Z,73.70
2023-05-18T15:42:21.335Z,74.00
2023-05-18T15:44:48.413Z,73.40
2023-05-18T15:47:15.353Z,73.00
2023-05-18T15:49:44.713Z,73.00
2023-05-18T15:52:11.749Z,73.60
2023-05-18T15:54:38.956Z,73.60
2023-05-18T15:57:06.229Z,73.80
2023-05-18T15:59:33.233Z,73.30
2023-05-18T16:02:03.060Z,72.60
2023-05-18T16:04:30.015Z,72.60
2023-05-18T16:06:57.020Z,73.60
2023-05-18T16:09:23.984Z,74.40
2023-05-18T16:11:52.391Z,74.90
2023-05-18T16:14:19.268Z,74.60
2023-05-18T16:16:46.274Z,74.20
2023-05-18T16:19:13.325Z,74.20
2023-05-18T16:21:40.487Z,74.00
2023-05-18T16:24:08.120Z,75.00
2023-05-18T16:26:34.928Z,75.90
2023-05-18T16:29:03.980Z,76.00
2023-05-18T16:31:31.370Z,76.10
2023-05-18T16:33:58.547Z,76.50
2023-05-18T16:36:26.203Z,76.90
2023-05-18T16:38:53.706Z,77.80
2023-05-18T16:41:22.283Z,77.00
2023-05-18T16:43:49.505Z,76.80
2023-05-18T16:46:17.965Z,77.40
2023-05-18T16:48:45.058Z,78.10
2023-05-18T16:51:19.110Z,76.80
2023-05-18T16:53:46.167Z,77.80
2023-05-18T16:56:13.712Z,78.50
2023-05-18T16:58:40.576Z,78.80
2023-05-18T17:01:23.616Z,78.30
2023-05-18T17:03:57.991Z,77.30
2023-05-18T17:06:27.585Z,78.30
2023-05-18T17:08:58.278Z,78.90
2023-05-18T17:11:26.973Z,79.10
2023-05-18T17:13:54.625Z,79.00
2023-05-18T17:16:22.308Z,79.30
2023-05-18T17:18:49.390Z,79.90
2023-05-18T17:21:16.640Z,80.20
2023-05-18T17:23:43.979Z,80.30
2023-05-18T17:26:11.261Z,80.50
2023-05-18T17:28:40.599Z,79.60
2023-05-18T17:31:08.047Z,80.60
2023-05-18T17:33:35.340Z,80.20
2023-05-18T17:36:02.632Z,80.90
2023-05-18T17:38:29.932Z,81.50
2023-05-18T17:40:59.800Z,81.40
2023-05-18T17:43:30.015Z,82.00
2023-05-18T17:45:57.231Z,81.40
2023-05-18T17:48:24.113Z,82.00
2023-05-18T17:50:53.645Z,82.70
2023-05-18T17:53:21.614Z,82.50
2023-05-18T17:55:48.934Z,83.00
2023-05-18T17:58:18.810Z,83.40
2023-05-18T18:00:46.034Z,83.50
2023-05-18T18:03:13.559Z,83.40
2023-05-18T18:05:40.829Z,84.00
2023-05-18T18:08:08.117Z,84.30
2023-05-18T18:10:37.315Z,85.00
2023-05-18T18:13:04.507Z,85.00
2023-05-18T18:15:34.566Z,85.40
2023-05-18T18:18:05.149Z,86.00
2023-05-18T18:20:37.854Z,86.10
2023-05-18T18:23:11.388Z,86.30
2023-05-18T18:25:38.529Z,86.30
2023-05-18T18:28:05.646Z,86.30
2023-05-18T18:30:32.835Z,86.90
2023-05-18T18:33:00.057Z,86.90
2023-05-18T18:35:27.096Z,87.10
2023-05-18T18:37:53.962Z,87.90
2023-05-18T18:40:21.063Z,87.80
2023-05-18T18:42:48.018Z,88.10
2023-05-18T18:45:14.944Z,88.30
2023-05-18T18:47:42.156Z,88.90
2023-05-18T18:50:09.252Z,89.20
2023-05-18T18:52:36.235Z,89.70
2023-05-18T18:55:03.439Z,89.90
2023-05-18T18:57:31.157Z,90.00
2023-05-18T18:59:59.106Z,90.20
2023-05-18T19:02:26.111Z,90.30
2023-05-18T19:04:53.784Z,90.50
2023-05-18T19:07:20.937Z,90.60
2023-05-18T19:09:49.654Z,90.70
2023-05-18T19:12:16.541Z,90.80
2023-05-18T19:14:43.466Z,90.80
2023-05-18T19:17:10.737Z,90.90
2023-05-18T19:19:37.970Z,91.20
2023-05-18T19:22:09.026Z,91.30
2023-05-18T19:24:36.402Z,91.50
2023-05-18T19:27:05.097Z,91.50
2023-05-18T19:29:38.563Z,91.80
2023-05-18T19:32:06.556Z,92.00
2023-05-18T19:34:36.344Z,92.10
2023-05-18T19:37:03.918Z,92.30
2023-05-18T19:39:33.425Z,92.50
2023-05-18T19:42:00.935Z,92.70
2023-05-18T19:47:23.674Z,93.00
2023-05-18T19:49:55.270Z,92.90
2023-05-18T19:52:31.298Z,93.20
2023-05-18T19:55:18.173Z,93.50
2023-05-18T19:57:58.021Z,93.90
2023-05-18T20:00:31.934Z,93.70
2023-05-18T20:03:04.973Z,93.90
2023-05-18T20:06:01.611Z,94.00
2023-05-18T20:08:29.929Z,94.10
2023-05-18T20:11:07.289Z,94.10
2023-05-18T20:13:34.307Z,94.20
2023-05-18T20:16:05.060Z,94.60
2023-05-18T20:18:38.084Z,94.40
2023-05-18T20:21:20.018Z,94.50
2023-05-18T20:24:11.758Z,94.50
2023-05-18T20:26:48.028Z,94.70
2023-05-18T20:29:17.989Z,94.60
2023-05-18T20:31:45.459Z,94.80
2023-05-18T20:34:14.999Z,94.80
2023-05-18T20:36:42.285Z,94.90
2023-05-18T20:39:09.409Z,94.90
2023-05-18T20:41:40.423Z,95.10
2023-05-18T20:44:12.556Z,95.20
2023-05-18T20:46:42.825Z,95.20
2023-05-18T20:49:23.413Z,95.00
2023-05-18T20:51:59.123Z,94.90
2023-05-18T20:54:39.879Z,95.30
2023-05-18T20:57:09.714Z,95.10
2023-05-18T20:59:45.596Z,95.20
2023-05-18T21:02:13.494Z,95.50
2023-05-18T21:04:45.704Z,95.40
2023-05-18T21:07:13.201Z,95.40
2023-05-18T21:09:47.039Z,95.60
2023-05-18T21:12:28.159Z,96.10
2023-05-18T21:14:59.386Z,96.40
2023-05-18T21:17:28.249Z,96.20
2023-05-18T21:20:02.882Z,96.20
2023-05-18T21:22:34.977Z,96.00
2023-05-18T21:25:13.512Z,96.30
2023-05-18T21:27:40.514Z,96.20
2023-05-18T21:30:08.066Z,96.10
2023-05-18T21:32:35.349Z,96.20
2023-05-18T21:35:02.389Z,96.10
2023-05-18T21:37:32.372Z,96.10
2023-05-18T21:40:02.857Z,95.90
2023-05-18T21:42:34.977Z,96.20
2023-05-18T21:48:07.851Z,96.40
2023-05-18T21:50:37.475Z,96.80
2023-05-18T21:53:04.489Z,96.40
2023-05-18T21:55:31.823Z,96.30
2023-05-18T21:57:59.124Z,96.20
2023-05-18T22:00:28.712Z,96.10
2023-05-18T22:02:56.012Z,96.20
2023-05-18T22:05:25.557Z,96.20
2023-05-18T22:07:53.890Z,96.50
2023-05-18T22:10:21.620Z,96.40
2023-05-18T22:12:48.609Z,96.50
2023-05-18T22:15:17.309Z,96.50
2023-05-18T22:17:46.586Z,96.90
2023-05-18T22:20:34.616Z,96.70
2023-05-18T22:23:05.696Z,96.70
2023-05-18T22:25:38.528Z,96.80
2023-05-18T22:28:14.398Z,96.90
2023-05-18T22:30:41.465Z,96.80
2023-05-18T22:33:14.290Z,97.10
2023-05-18T22:35:45.091Z,97.10
2023-05-18T22:38:15.273Z,97.20
2023-05-18T22:40:42.653Z,97.20
2023-05-18T22:43:12.784Z,97.40
2023-05-18T22:45:44.952Z,97.20
2023-05-18T22:48:12.441Z,97.00
2023-05-18T22:50:39.456Z,97.20
2023-05-18T22:53:10.735Z,97.10
2023-05-18T22:55:38.136Z,97.10
2023-05-18T22:58:06.819Z,97.10
2023-05-18T23:00:35.918Z,97.00
2023-05-18T23:03:04.900Z,97.00
2023-05-18T23:05:39.935Z,97.00
2023-05-18T23:08:07.531Z,97.20
2023-05-18T23:10:45.556Z,97.20
2023-05-18T23:13:22.753Z,97.00
2023-05-18T23:15:49.948Z,97.00
2023-05-18T23:18:22.273Z,97.30
2023-05-18T23:20:55.941Z,96.90
2023-05-18T23:23:28.860Z,96.90
2023-05-18T23:25:55.885Z,97.10
2023-05-18T23:28:25.717Z,97.10
2023-05-18T23:30:52.686Z,97.50
2023-05-18T23:33:24.987Z,97.30
2023-05-18T23:35:52.814Z,97.20
2023-05-18T23:38:27.408Z,97.30
2023-05-18T23:40:54.902Z,97.40
2023-05-18T23:43:22.099Z,97.40
2023-05-18T23:45:49.575Z,97.30
2023-05-18T23:48:16.915Z,97.00
2023-05-18T23:50:44.796Z,96.90
2023-05-18T23:53:12.594Z,97.20
2023-05-18T23:55:41.824Z,97.20
2023-05-18T23:58:11.657Z,97.20
